Terminal Aerodrome Forecast
Issued by NWS

Home | Current Version | Previous Version | Text Only | Print | Product List | Glossary On
Versions: 1 2 3 4 5 6 7 8 9 10 11 12 13 14 15 16 17 18
000
FTUS43 KAPX 291431 AAA
TAFTVC
TAF AMD
KTVC 291431Z 2915/3012 30003KT 5SM -SN OVC019
     FM291545 30004KT 1SM -SN OVC009
     FM291800 31012G22KT P6SM OVC022
     FM292200 31015G28KT P6SM VCSH OVC025
     FM300100 31014G26KT 2SM -SHSN BKN022 OVC035=

USA.gov is the U.S. government's official web portal to all federal, state and local government web resources and services.